sensor_id;sensor_type;location;lat;lon;timestamp;temperature;humidity
9389;DHT22;4734;52.778;6.798;2023-07-02T00:00:33;17.60;99.90
9389;DHT22;4734;52.778;6.798;2023-07-02T00:03:22;17.50;99.90
9389;DHT22;4734;52.778;6.798;2023-07-02T00:06:08;17.50;99.90
9389;DHT22;4734;52.778;6.798;2023-07-02T00:08:53;17.50;99.90
9389;DHT22;4734;52.778;6.798;2023-07-02T00:11:39;17.50;99.90
9389;DHT22;4734;52.778;6.798;2023-07-02T00:14:26;17.50;99.90
9389;DHT22;4734;52.778;6.798;2023-07-02T00:17:11;17.50;99.90
9389;DHT22;4734;52.778;6.798;2023-07-02T00:19:58;17.50;99.90
9389;DHT22;4734;52.778;6.798;2023-07-02T00:22:53;17.40;99.90
9389;DHT22;4734;52.778;6.798;2023-07-02T00:25:39;17.40;99.90
9389;DHT22;4734;52.778;6.798;2023-07-02T00:28:24;17.40;99.90
9389;DHT22;4734;52.778;6.798;2023-07-02T00:31:10;17.40;99.90
9389;DHT22;4734;52.778;6.798;2023-07-02T00:33:55;17.40;99.90
9389;DHT22;4734;52.778;6.798;2023-07-02T00:36:43;17.40;99.90
9389;DHT22;4734;52.778;6.798;2023-07-02T00:39:29;17.30;99.90
9389;DHT22;4734;52.778;6.798;2023-07-02T00:42:14;17.30;99.90
9389;DHT22;4734;52.778;6.798;2023-07-02T00:45:00;17.30;99.90
9389;DHT22;4734;52.778;6.798;2023-07-02T00:47:47;17.30;99.90
9389;DHT22;4734;52.778;6.798;2023-07-02T00:50:33;17.30;99.90
9389;DHT22;4734;52.778;6.798;2023-07-02T00:53:20;17.30;99.90
9389;DHT22;4734;52.778;6.798;2023-07-02T00:56:06;17.30;99.90
9389;DHT22;4734;52.778;6.798;2023-07-02T00:58:53;17.20;99.90
9389;DHT22;4734;52.778;6.798;2023-07-02T01:01:42;17.20;99.90
9389;DHT22;4734;52.778;6.798;2023-07-02T01:04:33;17.20;99.90
9389;DHT22;4734;52.778;6.798;2023-07-02T01:07:19;17.20;99.90
9389;DHT22;4734;52.778;6.798;2023-07-02T01:10:08;17.20;99.90
9389;DHT22;4734;52.778;6.798;2023-07-02T01:12:54;17.10;99.90
9389;DHT22;4734;52.778;6.798;2023-07-02T01:15:41;17.10;99.90
9389;DHT22;4734;52.778;6.798;2023-07-02T01:18:28;17.10;99.90
9389;DHT22;4734;52.778;6.798;2023-07-02T01:21:16;17.10;99.90
9389;DHT22;4734;52.778;6.798;2023-07-02T01:24:05;17.00;99.90
9389;DHT22;4734;52.778;6.798;2023-07-02T01:26:51;17.00;99.90
9389;DHT22;4734;52.778;6.798;2023-07-02T01:29:37;17.00;99.90
9389;DHT22;4734;52.778;6.798;2023-07-02T01:32:23;17.00;99.90
9389;DHT22;4734;52.778;6.798;2023-07-02T01:35:09;17.00;99.90
9389;DHT22;4734;52.778;6.798;2023-07-02T01:37:57;17.00;99.90
9389;DHT22;4734;52.778;6.798;2023-07-02T01:40:42;16.90;99.90
9389;DHT22;4734;52.778;6.798;2023-07-02T01:43:28;16.90;99.90
9389;DHT22;4734;52.778;6.798;2023-07-02T01:46:14;16.90;99.90
9389;DHT22;4734;52.778;6.798;2023-07-02T01:48:59;16.90;99.90
9389;DHT22;4734;52.778;6.798;2023-07-02T01:51:45;16.90;99.90
9389;DHT22;4734;52.778;6.798;2023-07-02T01:54:36;16.80;99.90
9389;DHT22;4734;52.778;6.798;2023-07-02T01:57:22;16.80;99.90
9389;DHT22;4734;52.778;6.798;2023-07-02T02:00:08;16.70;99.90
9389;DHT22;4734;52.778;6.798;2023-07-02T02:02:54;16.70;99.90
9389;DHT22;4734;52.778;6.798;2023-07-02T02:05:40;16.70;99.90
9389;DHT22;4734;52.778;6.798;2023-07-02T02:08:26;16.70;99.90
9389;DHT22;4734;52.778;6.798;2023-07-02T02:11:13;16.60;99.90
9389;DHT22;4734;52.778;6.798;2023-07-02T02:13:59;16.60;99.90
9389;DHT22;4734;52.778;6.798;2023-07-02T02:16:45;16.60;99.90
9389;DHT22;4734;52.778;6.798;2023-07-02T02:19:31;16.60;99.90
9389;DHT22;4734;52.778;6.798;2023-07-02T02:22:17;16.50;99.90
9389;DHT22;4734;52.778;6.798;2023-07-02T02:25:03;16.50;99.90
9389;DHT22;4734;52.778;6.798;2023-07-02T02:27:50;16.50;99.90
9389;DHT22;4734;52.778;6.798;2023-07-02T02:30:36;16.40;99.90
9389;DHT22;4734;52.778;6.798;2023-07-02T02:33:22;16.40;99.90
9389;DHT22;4734;52.778;6.798;2023-07-02T02:36:08;16.40;99.90
9389;DHT22;4734;52.778;6.798;2023-07-02T02:38:53;16.40;99.90
9389;DHT22;4734;52.778;6.798;2023-07-02T02:41:40;16.30;99.90
9389;DHT22;4734;52.778;6.798;2023-07-02T02:44:28;16.30;99.90
9389;DHT22;4734;52.778;6.798;2023-07-02T02:47:14;16.30;99.90
9389;DHT22;4734;52.778;6.798;2023-07-02T02:50:00;16.20;99.90
9389;DHT22;4734;52.778;6.798;2023-07-02T02:52:46;16.20;99.90
9389;DHT22;4734;52.778;6.798;2023-07-02T02:55:31;16.20;99.90
9389;DHT22;4734;52.778;6.798;2023-07-02T02:58:17;16.20;99.90
9389;DHT22;4734;52.778;6.798;2023-07-02T03:01:04;16.10;99.90
9389;DHT22;4734;52.778;6.798;2023-07-02T03:03:54;16.10;99.90
9389;DHT22;4734;52.778;6.798;2023-07-02T03:06:40;16.10;99.90
9389;DHT22;4734;52.778;6.798;2023-07-02T03:09:25;16.10;99.90
9389;DHT22;4734;52.778;6.798;2023-07-02T03:12:11;16.00;99.90
9389;DHT22;4734;52.778;6.798;2023-07-02T03:14:57;16.00;99.90
9389;DHT22;4734;52.778;6.798;2023-07-02T03:17:45;15.90;99.90
9389;DHT22;4734;52.778;6.798;2023-07-02T03:20:31;15.90;99.90
9389;DHT22;4734;52.778;6.798;2023-07-02T03:23:16;15.90;99.90
9389;DHT22;4734;52.778;6.798;2023-07-02T03:26:02;15.90;99.90
9389;DHT22;4734;52.778;6.798;2023-07-02T03:28:47;15.90;99.90
9389;DHT22;4734;52.778;6.798;2023-07-02T03:31:33;15.90;99.90
9389;DHT22;4734;52.778;6.798;2023-07-02T03:34:20;15.80;99.90
9389;DHT22;4734;52.778;6.798;2023-07-02T03:37:07;15.80;99.90
9389;DHT22;4734;52.778;6.798;2023-07-02T03:39:53;15.70;99.90
9389;DHT22;4734;52.778;6.798;2023-07-02T03:42:39;15.70;99.90
9389;DHT22;4734;52.778;6.798;2023-07-02T03:45:24;15.70;99.90
9389;DHT22;4734;52.778;6.798;2023-07-02T03:48:10;15.70;99.90
9389;DHT22;4734;52.778;6.798;2023-07-02T03:50:57;15.70;99.90
9389;DHT22;4734;52.778;6.798;2023-07-02T03:53:42;15.60;99.90
9389;DHT22;4734;52.778;6.798;2023-07-02T03:56:28;15.60;99.90
9389;DHT22;4734;52.778;6.798;2023-07-02T03:59:14;15.60;99.90
9389;DHT22;4734;52.778;6.798;2023-07-02T04:01:59;15.60;99.90
9389;DHT22;4734;52.778;6.798;2023-07-02T04:04:46;15.60;99.90
9389;DHT22;4734;52.778;6.798;2023-07-02T04:07:33;15.60;99.90
9389;DHT22;4734;52.778;6.798;2023-07-02T04:10:19;15.50;99.90
9389;DHT22;4734;52.778;6.798;2023-07-02T04:13:04;15.60;99.90
9389;DHT22;4734;52.778;6.798;2023-07-02T04:15:50;15.60;99.90
9389;DHT22;4734;52.778;6.798;2023-07-02T04:18:36;15.50;99.90
9389;DHT22;4734;52.778;6.798;2023-07-02T04:21:21;15.60;99.90
9389;DHT22;4734;52.778;6.798;2023-07-02T04:24:08;15.50;99.90
9389;DHT22;4734;52.778;6.798;2023-07-02T04:26:54;15.50;99.90
9389;DHT22;4734;52.778;6.798;2023-07-02T04:29:39;15.50;99.90
9389;DHT22;4734;52.778;6.798;2023-07-02T04:32:25;15.50;99.90
9389;DHT22;4734;52.778;6.798;2023-07-02T04:35:11;15.50;99.90
9389;DHT22;4734;52.778;6.798;2023-07-02T04:37:56;15.50;99.90
9389;DHT22;4734;52.778;6.798;2023-07-02T04:40:44;15.50;99.90
9389;DHT22;4734;52.778;6.798;2023-07-02T04:43:30;15.50;99.90
9389;DHT22;4734;52.778;6.798;2023-07-02T04:46:16;15.50;99.90
9389;DHT22;4734;52.778;6.798;2023-07-02T04:49:02;15.50;99.90
9389;DHT22;4734;52.778;6.798;2023-07-02T04:51:47;15.50;99.90
9389;DHT22;4734;52.778;6.798;2023-07-02T04:54:33;15.50;99.90
9389;DHT22;4734;52.778;6.798;2023-07-02T04:57:20;15.50;99.90
9389;DHT22;4734;52.778;6.798;2023-07-02T05:00:07;15.50;99.90
9389;DHT22;4734;52.778;6.798;2023-07-02T05:02:53;15.50;99.90
9389;DHT22;4734;52.778;6.798;2023-07-02T05:05:38;15.50;99.90
9389;DHT22;4734;52.778;6.798;2023-07-02T05:08:24;15.60;99.90
9389;DHT22;4734;52.778;6.798;2023-07-02T05:11:10;15.50;99.90
9389;DHT22;4734;52.778;6.798;2023-07-02T05:13:57;15.50;99.90
9389;DHT22;4734;52.778;6.798;2023-07-02T05:16:42;15.50;99.90
9389;DHT22;4734;52.778;6.798;2023-07-02T05:19:28;15.60;99.90
9389;DHT22;4734;52.778;6.798;2023-07-02T05:22:14;15.60;99.90
9389;DHT22;4734;52.778;6.798;2023-07-02T05:25:00;15.60;99.90
9389;DHT22;4734;52.778;6.798;2023-07-02T05:27:45;15.60;99.90
9389;DHT22;4734;52.778;6.798;2023-07-02T05:30:33;15.60;99.90
9389;DHT22;4734;52.778;6.798;2023-07-02T05:33:18;15.60;99.90
9389;DHT22;4734;52.778;6.798;2023-07-02T05:36:04;15.60;99.90
9389;DHT22;4734;52.778;6.798;2023-07-02T05:38:49;15.60;99.90
9389;DHT22;4734;52.778;6.798;2023-07-02T05:41:36;15.60;99.90
9389;DHT22;4734;52.778;6.798;2023-07-02T05:44:21;15.70;99.90
9389;DHT22;4734;52.778;6.798;2023-07-02T05:47:08;15.70;99.90
9389;DHT22;4734;52.778;6.798;2023-07-02T05:49:54;15.70;99.90
9389;DHT22;4734;52.778;6.798;2023-07-02T05:52:39;15.70;99.90
9389;DHT22;4734;52.778;6.798;2023-07-02T05:55:25;15.80;99.90
9389;DHT22;4734;52.778;6.798;2023-07-02T05:58:11;15.80;99.90
9389;DHT22;4734;52.778;6.798;2023-07-02T06:00:57;15.80;99.90
9389;DHT22;4734;52.778;6.798;2023-07-02T06:03:44;15.90;99.90
9389;DHT22;4734;52.778;6.798;2023-07-02T06:06:30;15.90;99.90
9389;DHT22;4734;52.778;6.798;2023-07-02T06:09:15;15.90;99.90
9389;DHT22;4734;52.778;6.798;2023-07-02T06:12:02;16.00;99.90
9389;DHT22;4734;52.778;6.798;2023-07-02T06:14:47;16.00;99.90
9389;DHT22;4734;52.778;6.798;2023-07-02T06:17:34;16.10;99.90
9389;DHT22;4734;52.778;6.798;2023-07-02T06:20:21;16.10;99.90
9389;DHT22;4734;52.778;6.798;2023-07-02T06:23:06;16.10;99.90
9389;DHT22;4734;52.778;6.798;2023-07-02T06:25:51;16.20;99.90
9389;DHT22;4734;52.778;6.798;2023-07-02T06:28:43;16.30;99.90
9389;DHT22;4734;52.778;6.798;2023-07-02T06:31:28;16.30;99.90
9389;DHT22;4734;52.778;6.798;2023-07-02T06:34:14;16.40;99.90
9389;DHT22;4734;52.778;6.798;2023-07-02T06:37:01;16.40;99.90
9389;DHT22;4734;52.778;6.798;2023-07-02T06:39:47;16.50;99.90
9389;DHT22;4734;52.778;6.798;2023-07-02T06:42:33;16.50;99.90
9389;DHT22;4734;52.778;6.798;2023-07-02T06:45:20;16.60;99.90
9389;DHT22;4734;52.778;6.798;2023-07-02T06:48:06;16.60;99.90
9389;DHT22;4734;52.778;6.798;2023-07-02T06:50:51;16.70;99.90
9389;DHT22;4734;52.778;6.798;2023-07-02T06:53:38;16.80;99.90
9389;DHT22;4734;52.778;6.798;2023-07-02T06:56:23;16.90;99.90
9389;DHT22;4734;52.778;6.798;2023-07-02T06:59:09;16.90;99.90
9389;DHT22;4734;52.778;6.798;2023-07-02T07:01:55;17.00;99.90
9389;DHT22;4734;52.778;6.798;2023-07-02T07:04:40;17.10;99.90
9389;DHT22;4734;52.778;6.798;2023-07-02T07:07:26;17.10;99.90
9389;DHT22;4734;52.778;6.798;2023-07-02T07:10:13;17.20;99.90
9389;DHT22;4734;52.778;6.798;2023-07-02T07:13:00;17.30;99.90
9389;DHT22;4734;52.778;6.798;2023-07-02T07:15:46;17.40;99.90
9389;DHT22;4734;52.778;6.798;2023-07-02T07:18:31;17.50;99.90
9389;DHT22;4734;52.778;6.798;2023-07-02T07:21:17;17.50;99.90
9389;DHT22;4734;52.778;6.798;2023-07-02T07:24:03;17.60;99.90
9389;DHT22;4734;52.778;6.798;2023-07-02T07:26:50;17.70;99.90
9389;DHT22;4734;52.778;6.798;2023-07-02T07:29:36;17.80;99.90
9389;DHT22;4734;52.778;6.798;2023-07-02T07:32:22;17.80;99.90
9389;DHT22;4734;52.778;6.798;2023-07-02T07:35:08;17.90;99.90
9389;DHT22;4734;52.778;6.798;2023-07-02T07:37:53;18.00;99.90
9389;DHT22;4734;52.778;6.798;2023-07-02T07:40:39;18.00;99.90
9389;DHT22;4734;52.778;6.798;2023-07-02T07:43:26;18.10;99.90
9389;DHT22;4734;52.778;6.798;2023-07-02T07:46:12;18.10;99.90
9389;DHT22;4734;52.778;6.798;2023-07-02T07:48:58;18.20;99.90
9389;DHT22;4734;52.778;6.798;2023-07-02T07:51:44;18.30;99.90
9389;DHT22;4734;52.778;6.798;2023-07-02T07:54:29;18.30;99.90
9389;DHT22;4734;52.778;6.798;2023-07-02T07:57:15;18.40;99.90
9389;DHT22;4734;52.778;6.798;2023-07-02T08:00:02;18.40;99.90
9389;DHT22;4734;52.778;6.798;2023-07-02T08:02:51;18.40;99.90
9389;DHT22;4734;52.778;6.798;2023-07-02T08:05:39;18.50;99.90
9389;DHT22;4734;52.778;6.798;2023-07-02T08:08:26;18.50;99.90
9389;DHT22;4734;52.778;6.798;2023-07-02T08:11:11;18.60;99.90
9389;DHT22;4734;52.778;6.798;2023-07-02T08:13:57;18.70;99.90
9389;DHT22;4734;52.778;6.798;2023-07-02T08:16:44;18.70;99.90
9389;DHT22;4734;52.778;6.798;2023-07-02T08:19:30;18.80;99.90
9389;DHT22;4734;52.778;6.798;2023-07-02T08:22:16;18.90;99.90
9389;DHT22;4734;52.778;6.798;2023-07-02T08:25:02;18.90;99.70
9389;DHT22;4734;52.778;6.798;2023-07-02T08:27:48;19.00;99.60
9389;DHT22;4734;52.778;6.798;2023-07-02T08:30:35;19.10;99.70
9389;DHT22;4734;52.778;6.798;2023-07-02T08:33:22;19.20;99.80
9389;DHT22;4734;52.778;6.798;2023-07-02T08:36:08;19.20;99.60
9389;DHT22;4734;52.778;6.798;2023-07-02T08:38:54;19.30;99.60
9389;DHT22;4734;52.778;6.798;2023-07-02T08:41:44;19.40;99.60
9389;DHT22;4734;52.778;6.798;2023-07-02T08:44:30;19.50;99.20
9389;DHT22;4734;52.778;6.798;2023-07-02T08:47:15;19.50;99.00
9389;DHT22;4734;52.778;6.798;2023-07-02T08:50:03;19.60;98.90
9389;DHT22;4734;52.778;6.798;2023-07-02T08:52:50;19.70;99.20
9389;DHT22;4734;52.778;6.798;2023-07-02T08:55:38;19.70;97.50
9389;DHT22;4734;52.778;6.798;2023-07-02T08:58:24;19.70;98.10
9389;DHT22;4734;52.778;6.798;2023-07-02T09:01:11;19.80;98.40
9389;DHT22;4734;52.778;6.798;2023-07-02T09:03:59;19.90;98.20
9389;DHT22;4734;52.778;6.798;2023-07-02T09:06:51;20.00;98.10
9389;DHT22;4734;52.778;6.798;2023-07-02T09:09:49;20.00;97.70
9389;DHT22;4734;52.778;6.798;2023-07-02T09:12:35;20.10;97.10
9389;DHT22;4734;52.778;6.798;2023-07-02T09:15:23;20.10;97.00
9389;DHT22;4734;52.778;6.798;2023-07-02T09:18:16;20.10;97.10
9389;DHT22;4734;52.778;6.798;2023-07-02T09:21:05;20.20;96.90
9389;DHT22;4734;52.778;6.798;2023-07-02T09:23:52;20.20;96.70
9389;DHT22;4734;52.778;6.798;2023-07-02T09:26:38;20.20;96.80
9389;DHT22;4734;52.778;6.798;2023-07-02T09:29:27;20.20;96.40
9389;DHT22;4734;52.778;6.798;2023-07-02T09:32:13;20.20;96.40
9389;DHT22;4734;52.778;6.798;2023-07-02T09:34:58;20.20;96.40
9389;DHT22;4734;52.778;6.798;2023-07-02T09:37:45;20.30;96.10
9389;DHT22;4734;52.778;6.798;2023-07-02T09:40:36;20.30;96.30
9389;DHT22;4734;52.778;6.798;2023-07-02T09:43:24;20.30;96.10
9389;DHT22;4734;52.778;6.798;2023-07-02T09:46:13;20.30;96.10
9389;DHT22;4734;52.778;6.798;2023-07-02T09:48:59;20.30;96.20
9389;DHT22;4734;52.778;6.798;2023-07-02T09:51:45;20.30;96.00
9389;DHT22;4734;52.778;6.798;2023-07-02T09:54:31;20.30;95.80
9389;DHT22;4734;52.778;6.798;2023-07-02T09:57:18;20.30;95.80
9389;DHT22;4734;52.778;6.798;2023-07-02T10:00:04;20.30;95.90
9389;DHT22;4734;52.778;6.798;2023-07-02T10:02:51;20.30;95.90
9389;DHT22;4734;52.778;6.798;2023-07-02T10:05:37;20.30;96.00
9389;DHT22;4734;52.778;6.798;2023-07-02T10:08:24;20.40;95.60
9389;DHT22;4734;52.778;6.798;2023-07-02T10:11:17;20.40;95.70
9389;DHT22;4734;52.778;6.798;2023-07-02T10:14:06;20.40;95.70
9389;DHT22;4734;52.778;6.798;2023-07-02T10:16:52;20.50;95.20
9389;DHT22;4734;52.778;6.798;2023-07-02T10:19:50;20.40;94.90
9389;DHT22;4734;52.778;6.798;2023-07-02T10:22:43;20.40;94.00
9389;DHT22;4734;52.778;6.798;2023-07-02T10:25:30;20.50;94.50
9389;DHT22;4734;52.778;6.798;2023-07-02T10:28:20;20.50;94.40
9389;DHT22;4734;52.778;6.798;2023-07-02T10:31:19;20.50;94.40
9389;DHT22;4734;52.778;6.798;2023-07-02T10:34:06;20.50;94.30
9389;DHT22;4734;52.778;6.798;2023-07-02T10:36:57;20.60;94.10
9389;DHT22;4734;52.778;6.798;2023-07-02T10:39:43;20.50;93.90
9389;DHT22;4734;52.778;6.798;2023-07-02T10:42:29;20.50;93.80
9389;DHT22;4734;52.778;6.798;2023-07-02T10:45:14;20.50;94.20
9389;DHT22;4734;52.778;6.798;2023-07-02T10:48:03;20.40;94.20
9389;DHT22;4734;52.778;6.798;2023-07-02T10:50:49;20.40;94.30
9389;DHT22;4734;52.778;6.798;2023-07-02T10:53:35;20.30;94.50
9389;DHT22;4734;52.778;6.798;2023-07-02T10:56:20;20.30;94.70
9389;DHT22;4734;52.778;6.798;2023-07-02T10:59:06;20.30;94.70
9389;DHT22;4734;52.778;6.798;2023-07-02T11:01:52;20.30;94.70
9389;DHT22;4734;52.778;6.798;2023-07-02T11:04:42;20.30;95.00
9389;DHT22;4734;52.778;6.798;2023-07-02T11:07:28;20.30;95.00
9389;DHT22;4734;52.778;6.798;2023-07-02T11:10:19;20.30;95.10
9389;DHT22;4734;52.778;6.798;2023-07-02T11:13:12;20.30;94.90
9389;DHT22;4734;52.778;6.798;2023-07-02T11:15:57;20.30;95.10
9389;DHT22;4734;52.778;6.798;2023-07-02T11:18:47;20.40;95.10
9389;DHT22;4734;52.778;6.798;2023-07-02T11:21:34;20.40;95.20
9389;DHT22;4734;52.778;6.798;2023-07-02T11:24:27;20.40;94.90
9389;DHT22;4734;52.778;6.798;2023-07-02T11:27:21;20.40;94.90
9389;DHT22;4734;52.778;6.798;2023-07-02T11:30:08;20.50;94.90
9389;DHT22;4734;52.778;6.798;2023-07-02T11:32:54;20.50;94.90
9389;DHT22;4734;52.778;6.798;2023-07-02T11:35:40;20.50;95.10
9389;DHT22;4734;52.778;6.798;2023-07-02T11:38:29;20.60;95.10
9389;DHT22;4734;52.778;6.798;2023-07-02T11:41:14;20.60;95.10
9389;DHT22;4734;52.778;6.798;2023-07-02T11:44:00;20.60;94.80
9389;DHT22;4734;52.778;6.798;2023-07-02T11:46:46;20.60;94.60
9389;DHT22;4734;52.778;6.798;2023-07-02T11:49:32;20.60;94.10
9389;DHT22;4734;52.778;6.798;2023-07-02T11:52:18;20.60;94.00
9389;DHT22;4734;52.778;6.798;2023-07-02T11:55:06;20.60;93.60
9389;DHT22;4734;52.778;6.798;2023-07-02T11:57:52;20.50;93.60
9389;DHT22;4734;52.778;6.798;2023-07-02T12:00:37;20.50;92.70
9389;DHT22;4734;52.778;6.798;2023-07-02T12:03:23;20.50;93.10
9389;DHT22;4734;52.778;6.798;2023-07-02T12:06:09;20.50;92.70
9389;DHT22;4734;52.778;6.798;2023-07-02T12:08:54;20.50;92.50
9389;DHT22;4734;52.778;6.798;2023-07-02T12:11:41;20.60;92.70
9389;DHT22;4734;52.778;6.798;2023-07-02T12:14:29;20.60;92.80
9389;DHT22;4734;52.778;6.798;2023-07-02T12:17:14;20.60;92.30
9389;DHT22;4734;52.778;6.798;2023-07-02T12:20:00;20.60;92.10
9389;DHT22;4734;52.778;6.798;2023-07-02T12:22:46;20.50;92.20
9389;DHT22;4734;52.778;6.798;2023-07-02T12:25:31;20.50;92.10
9389;DHT22;4734;52.778;6.798;2023-07-02T12:28:18;20.50;91.60
9389;DHT22;4734;52.778;6.798;2023-07-02T12:31:04;20.60;91.90
9389;DHT22;4734;52.778;6.798;2023-07-02T12:33:49;20.60;91.80
9389;DHT22;4734;52.778;6.798;2023-07-02T12:36:35;20.60;91.80
9389;DHT22;4734;52.778;6.798;2023-07-02T12:39:20;20.60;91.40
9389;DHT22;4734;52.778;6.798;2023-07-02T12:42:06;20.50;90.90
9389;DHT22;4734;52.778;6.798;2023-07-02T12:44:53;20.50;90.90
9389;DHT22;4734;52.778;6.798;2023-07-02T12:47:39;20.50;91.30
9389;DHT22;4734;52.778;6.798;2023-07-02T12:50:24;20.50;91.20
9389;DHT22;4734;52.778;6.798;2023-07-02T12:53:10;20.50;91.00
9389;DHT22;4734;52.778;6.798;2023-07-02T12:55:55;20.50;91.00
9389;DHT22;4734;52.778;6.798;2023-07-02T12:58:41;20.50;91.20
9389;DHT22;4734;52.778;6.798;2023-07-02T13:01:28;20.50;90.90
9389;DHT22;4734;52.778;6.798;2023-07-02T13:04:14;20.50;91.00
9389;DHT22;4734;52.778;6.798;2023-07-02T13:06:59;20.60;91.10
9389;DHT22;4734;52.778;6.798;2023-07-02T13:09:45;20.50;91.00
9389;DHT22;4734;52.778;6.798;2023-07-02T13:12:30;20.60;91.00
9389;DHT22;4734;52.778;6.798;2023-07-02T13:15:16;20.70;91.30
9389;DHT22;4734;52.778;6.798;2023-07-02T13:18:03;20.70;91.40
9389;DHT22;4734;52.778;6.798;2023-07-02T13:20:50;20.80;91.60
9389;DHT22;4734;52.778;6.798;2023-07-02T13:23:35;20.90;91.20
9389;DHT22;4734;52.778;6.798;2023-07-02T13:26:20;21.00;91.00
9389;DHT22;4734;52.778;6.798;2023-07-02T13:29:06;21.00;90.60
9389;DHT22;4734;52.778;6.798;2023-07-02T13:31:52;21.20;90.30
9389;DHT22;4734;52.778;6.798;2023-07-02T13:34:39;21.30;90.40
9389;DHT22;4734;52.778;6.798;2023-07-02T13:37:24;21.40;90.00
9389;DHT22;4734;52.778;6.798;2023-07-02T13:40:10;21.50;90.00
9389;DHT22;4734;52.778;6.798;2023-07-02T13:42:56;21.70;89.70
9389;DHT22;4734;52.778;6.798;2023-07-02T13:45:42;21.80;88.90
9389;DHT22;4734;52.778;6.798;2023-07-02T13:48:27;21.90;87.00
9389;DHT22;4734;52.778;6.798;2023-07-02T13:51:14;22.00;89.00
9389;DHT22;4734;52.778;6.798;2023-07-02T13:54:00;22.10;88.60
9389;DHT22;4734;52.778;6.798;2023-07-02T13:56:46;22.20;87.80
9389;DHT22;4734;52.778;6.798;2023-07-02T13:59:33;22.20;86.90
9389;DHT22;4734;52.778;6.798;2023-07-02T14:02:18;22.20;86.60
9389;DHT22;4734;52.778;6.798;2023-07-02T14:05:05;22.20;85.70
9389;DHT22;4734;52.778;6.798;2023-07-02T14:07:50;22.30;86.60
9389;DHT22;4734;52.778;6.798;2023-07-02T14:10:37;22.30;85.80
9389;DHT22;4734;52.778;6.798;2023-07-02T14:13:23;22.40;85.80
9389;DHT22;4734;52.778;6.798;2023-07-02T14:16:10;22.40;84.80
9389;DHT22;4734;52.778;6.798;2023-07-02T14:18:55;22.40;84.90
9389;DHT22;4734;52.778;6.798;2023-07-02T14:21:41;22.40;85.20
9389;DHT22;4734;52.778;6.798;2023-07-02T14:24:26;22.50;84.50
9389;DHT22;4734;52.778;6.798;2023-07-02T14:27:14;22.50;83.70
9389;DHT22;4734;52.778;6.798;2023-07-02T14:30:00;22.60;84.60
9389;DHT22;4734;52.778;6.798;2023-07-02T14:32:50;22.60;84.50
9389;DHT22;4734;52.778;6.798;2023-07-02T14:35:36;22.60;83.80
9389;DHT22;4734;52.778;6.798;2023-07-02T14:38:22;22.60;84.10
9389;DHT22;4734;52.778;6.798;2023-07-02T14:41:08;22.60;83.70
9389;DHT22;4734;52.778;6.798;2023-07-02T14:43:54;22.60;83.50
9389;DHT22;4734;52.778;6.798;2023-07-02T14:46:40;22.70;82.80
9389;DHT22;4734;52.778;6.798;2023-07-02T14:49:28;22.70;83.00
9389;DHT22;4734;52.778;6.798;2023-07-02T14:52:13;22.70;82.10
9389;DHT22;4734;52.778;6.798;2023-07-02T14:54:59;22.80;82.70
9389;DHT22;4734;52.778;6.798;2023-07-02T14:57:45;22.80;83.30
9389;DHT22;4734;52.778;6.798;2023-07-02T15:00:31;22.90;83.30
9389;DHT22;4734;52.778;6.798;2023-07-02T15:03:17;22.90;83.30
9389;DHT22;4734;52.778;6.798;2023-07-02T15:06:09;22.90;83.50
9389;DHT22;4734;52.778;6.798;2023-07-02T15:25:07;23.10;83.40
9389;DHT22;4734;52.778;6.798;2023-07-02T15:27:53;23.20;83.20
9389;DHT22;4734;52.778;6.798;2023-07-02T15:30:39;23.20;83.30
9389;DHT22;4734;52.778;6.798;2023-07-02T15:33:25;23.20;83.00
9389;DHT22;4734;52.778;6.798;2023-07-02T15:36:11;23.20;82.40
9389;DHT22;4734;52.778;6.798;2023-07-02T15:38:58;23.20;82.00
9389;DHT22;4734;52.778;6.798;2023-07-02T15:41:45;23.10;81.70
9389;DHT22;4734;52.778;6.798;2023-07-02T15:44:31;23.10;81.80
9389;DHT22;4734;52.778;6.798;2023-07-02T15:47:16;23.00;81.90
9389;DHT22;4734;52.778;6.798;2023-07-02T15:50:02;23.00;82.00
9389;DHT22;4734;52.778;6.798;2023-07-02T15:52:48;23.00;80.50
9389;DHT22;4734;52.778;6.798;2023-07-02T15:55:35;22.90;81.10
9389;DHT22;4734;52.778;6.798;2023-07-02T15:58:23;22.90;81.70
9389;DHT22;4734;52.778;6.798;2023-07-02T16:01:10;22.80;81.50
9389;DHT22;4734;52.778;6.798;2023-07-02T16:03:56;22.80;80.70
9389;DHT22;4734;52.778;6.798;2023-07-02T16:06:42;22.70;80.20
9389;DHT22;4734;52.778;6.798;2023-07-02T16:09:27;22.70;80.30
9389;DHT22;4734;52.778;6.798;2023-07-02T16:12:13;22.60;80.50
9389;DHT22;4734;52.778;6.798;2023-07-02T16:15:01;22.60;80.70
9389;DHT22;4734;52.778;6.798;2023-07-02T16:17:47;22.60;81.20
9389;DHT22;4734;52.778;6.798;2023-07-02T16:20:33;22.50;81.00
9389;DHT22;4734;52.778;6.798;2023-07-02T16:23:19;22.50;80.80
9389;DHT22;4734;52.778;6.798;2023-07-02T16:26:07;22.50;81.00
9389;DHT22;4734;52.778;6.798;2023-07-02T16:28:52;22.40;80.50
9389;DHT22;4734;52.778;6.798;2023-07-02T16:31:40;22.40;80.10
9389;DHT22;4734;52.778;6.798;2023-07-02T16:34:30;22.40;80.20
9389;DHT22;4734;52.778;6.798;2023-07-02T16:37:17;22.30;79.70
9389;DHT22;4734;52.778;6.798;2023-07-02T16:40:03;22.30;80.10
9389;DHT22;4734;52.778;6.798;2023-07-02T16:42:49;22.30;79.80
9389;DHT22;4734;52.778;6.798;2023-07-02T16:45:35;22.20;79.30
9389;DHT22;4734;52.778;6.798;2023-07-02T16:48:23;22.20;79.90
9389;DHT22;4734;52.778;6.798;2023-07-02T16:51:09;22.20;79.70
9389;DHT22;4734;52.778;6.798;2023-07-02T16:53:54;22.20;79.10
9389;DHT22;4734;52.778;6.798;2023-07-02T16:56:45;22.20;79.80
9389;DHT22;4734;52.778;6.798;2023-07-02T16:59:32;22.20;79.60
9389;DHT22;4734;52.778;6.798;2023-07-02T17:02:21;22.10;79.70
9389;DHT22;4734;52.778;6.798;2023-07-02T17:05:10;22.10;80.20
9389;DHT22;4734;52.778;6.798;2023-07-02T17:07:57;22.10;79.50
9389;DHT22;4734;52.778;6.798;2023-07-02T17:10:43;22.00;79.50
9389;DHT22;4734;52.778;6.798;2023-07-02T17:13:28;22.00;79.90
9389;DHT22;4734;52.778;6.798;2023-07-02T17:16:14;22.00;79.90
9389;DHT22;4734;52.778;6.798;2023-07-02T17:19:00;21.90;80.40
9389;DHT22;4734;52.778;6.798;2023-07-02T17:21:50;21.90;80.40
9389;DHT22;4734;52.778;6.798;2023-07-02T17:24:38;21.90;80.20
9389;DHT22;4734;52.778;6.798;2023-07-02T17:27:25;21.80;80.70
9389;DHT22;4734;52.778;6.798;2023-07-02T17:30:11;21.80;80.40
9389;DHT22;4734;52.778;6.798;2023-07-02T17:32:58;21.80;80.20
9389;DHT22;4734;52.778;6.798;2023-07-02T17:35:45;21.70;80.00
9389;DHT22;4734;52.778;6.798;2023-07-02T17:38:32;21.70;79.80
9389;DHT22;4734;52.778;6.798;2023-07-02T17:41:18;21.70;80.00
9389;DHT22;4734;52.778;6.798;2023-07-02T17:44:05;21.70;79.50
9389;DHT22;4734;52.778;6.798;2023-07-02T17:46:52;21.70;78.80
9389;DHT22;4734;52.778;6.798;2023-07-02T17:49:40;21.80;79.30
9389;DHT22;4734;52.778;6.798;2023-07-02T17:52:25;21.80;79.30
9389;DHT22;4734;52.778;6.798;2023-07-02T17:55:12;21.80;79.40
9389;DHT22;4734;52.778;6.798;2023-07-02T17:57:58;21.80;79.20
9389;DHT22;4734;52.778;6.798;2023-07-02T18:00:44;21.80;79.60
9389;DHT22;4734;52.778;6.798;2023-07-02T18:03:29;21.90;80.10
9389;DHT22;4734;52.778;6.798;2023-07-02T18:06:16;21.80;80.00
9389;DHT22;4734;52.778;6.798;2023-07-02T18:09:02;21.80;79.60
9389;DHT22;4734;52.778;6.798;2023-07-02T18:11:50;21.80;79.90
9389;DHT22;4734;52.778;6.798;2023-07-02T18:14:38;21.70;80.10
9389;DHT22;4734;52.778;6.798;2023-07-02T18:17:23;21.70;80.20
9389;DHT22;4734;52.778;6.798;2023-07-02T18:20:10;21.70;80.30
9389;DHT22;4734;52.778;6.798;2023-07-02T18:22:58;21.60;80.30